Valdez Pioneer Field Valdez US
ICAO: PAVD
IATA:
Category: Medium
Scheduled Services:

Elevation: 121 ft
TransAlt. 18000 ft.

Airport Communications:
AWOS 3:118.8
ANCHORAGE CNTR:119.3
CTAF:122.9
JUNEAU RDO:122.2

PAVD Zoom In..

If you have problems with the map follow the link
https://www.worldairports.se/pages/airport.php?
ICAO=PAVD

Runways:

(A) RW 06 length 6500 ft width 150 ft
---- / hdg 62

(B) RW 24 length 6500 ft width 150 ft
---- / hdg 242

Location; PAVD
Day. 12 / Time. 08.56 Zulu
* Altimeter: 29.41
* Temperature: 02° c. 35.6°f.
* Wind from: 310° Speed 04 kn.
Dewpoint: -02° c.
Visibility: 10 Statute Miles.
Clouds: Clear (automated report).

PAVD 120856Z AUTO 31004KT 10SM CLR 02/M02 A2941 RMK AO2 SLP957 T00171022 400501039 56009 FZRANO


Wind From 310°
Speed 04 kn.

 
 
jpsmedia worldairports.se 2019   terms of use